Wetterdaten: Woche 02.08.04 - 08.08.04 (KW32)
Datum Zeit Temperatur Luftfeuchte Luftdruck Regenmenge Wind Richtung Taupunkt Windchill
02.08.2004 00:00 19.7 C 77 % 1015.7 hPa 0.0 l/m 2.6 km/h (1 Bft) O-SO 15.6 C 19.7 C
02.08.2004 01:00 18.6 C 83 % 1016.4 hPa 0.0 l/m 0.7 km/h (0 Bft) O-SO 15.6 C 18.6 C
02.08.2004 02:00 17.8 C 87 % 1016.5 hPa 0.0 l/m 1.0 km/h (0 Bft) O-SO 15.6 C 17.8 C
02.08.2004 03:00 16.9 C 88 % 1015.7 hPa 0.0 l/m 0.9 km/h (0 Bft) O-SO 14.9 C 16.9 C
02.08.2004 04:00 16.1 C 92 % 1015.8 hPa 0.0 l/m 1.5 km/h (1 Bft) O-SO 14.8 C 16.1 C
02.08.2004 05:00 15.6 C 93 % 1015.9 hPa 0.0 l/m 0.0 km/h (0 Bft) N 14.5 C 15.6 C
02.08.2004 06:00 15.3 C 95 % 1015.9 hPa 0.0 l/m 0.0 km/h (0 Bft) N 14.4 C 15.3 C
02.08.2004 07:00 16.4 C 90 % 1015.8 hPa 0.0 l/m 0.0 km/h (0 Bft) N 14.7 C 16.4 C
02.08.2004 08:00 18.3 C 79 % 1016.5 hPa 0.0 l/m 0.0 km/h (0 Bft) N 14.6 C 18.3 C
02.08.2004 09:00 20.8 C 65 % 1015.8 hPa 0.0 l/m 0.1 km/h (0 Bft) W-NW 14.0 C 20.8 C
02.08.2004 10:00 23.7 C 54 % 1014.8 hPa 0.0 l/m 2.8 km/h (1 Bft) W-NW 13.8 C 23.7 C
02.08.2004 11:00 25.8 C 48 % 1014.4 hPa 0.0 l/m 3.1 km/h (1 Bft) W-NW 13.9 C 25.8 C
02.08.2004 12:00 28.0 C 42 % 1013.2 hPa 0.0 l/m 1.4 km/h (1 Bft) O-NO 13.7 C 28.0 C
02.08.2004 13:00 30.0 C 34 % 1013.0 hPa 0.0 l/m 2.7 km/h (1 Bft) NW 12.1 C 30.0 C
02.08.2004 14:00 31.8 C 26 % 1012.2 hPa 0.0 l/m 11.4 km/h (2 Bft) W-NW 10.0 C 31.8 C
02.08.2004 15:00 32.5 C 26 % 1011.7 hPa 0.0 l/m 15.9 km/h (3 Bft) W-NW 10.6 C 32.5 C
02.08.2004 16:00 32.8 C 26 % 1010.7 hPa 0.0 l/m 15.1 km/h (3 Bft) W-NW 10.7 C 32.8 C
02.08.2004 17:00 32.4 C 26 % 1010.6 hPa 0.0 l/m 16.9 km/h (3 Bft) W-NW 10.4 C 32.4 C
02.08.2004 18:00 31.4 C 26 % 1010.7 hPa 0.0 l/m 13.6 km/h (3 Bft) W-NW 9.6 C 31.4 C
02.08.2004 19:00 29.7 C 29 % 1010.8 hPa 0.0 l/m 11.0 km/h (2 Bft) W-NW 10.0 C 29.7 C
02.08.2004 20:00 27.0 C 39 % 1011.3 hPa 0.0 l/m 0.7 km/h (0 Bft) W-NW 11.7 C 27.0 C
02.08.2004 21:00 22.0 C 59 % 1012.3 hPa 0.0 l/m 5.1 km/h (1 Bft) O-SO 13.6 C 22.0 C
02.08.2004 22:00 20.3 C 67 % 1012.5 hPa 0.0 l/m 5.2 km/h (1 Bft) O-SO 13.8 C 20.3 C
02.08.2004 23:00 19.4 C 71 % 1012.5 hPa 0.0 l/m 1.2 km/h (1 Bft) O-SO 14.0 C 19.4 C
03.08.2004 00:00 19.4 C 71 % 1013.3 hPa 0.0 l/m 0.5 km/h (0 Bft) O-SO 14.0 C 19.4 C
03.08.2004 01:00 18.7 C 75 % 1013.4 hPa 0.0 l/m 0.6 km/h (0 Bft) O-SO 14.2 C 18.7 C
03.08.2004 02:00 17.8 C 81 % 1013.3 hPa 0.0 l/m 2.2 km/h (1 Bft) O-SO 14.4 C 17.8 C
03.08.2004 03:00 17.3 C 81 % 1012.5 hPa 0.0 l/m 2.6 km/h (1 Bft) O-SO 14.0 C 17.3 C
03.08.2004 04:00 16.5 C 86 % 1012.6 hPa 0.0 l/m 0.0 km/h (0 Bft) N 14.1 C 16.5 C
03.08.2004 05:00 15.9 C 89 % 1012.7 hPa 0.0 l/m 0.4 km/h (0 Bft) O-SO 14.1 C 15.9 C
03.08.2004 06:00 15.9 C 89 % 1012.7 hPa 0.0 l/m 0.0 km/h (0 Bft) N 14.1 C 15.9 C
03.08.2004 07:00 17.1 C 85 % 1012.5 hPa 0.0 l/m 0.0 km/h (0 Bft) N 14.6 C 17.1 C
03.08.2004 08:00 18.3 C 77 % 1012.4 hPa 0.0 l/m 0.0 km/h (0 Bft) SW 14.3 C 18.3 C
03.08.2004 09:00 20.4 C 66 % 1012.1 hPa 0.0 l/m 0.7 km/h (0 Bft) W 13.8 C 20.4 C
03.08.2004 10:00 23.0 C 54 % 1011.5 hPa 0.0 l/m 2.6 km/h (1 Bft) W-NW 13.1 C 23.0 C
03.08.2004 11:00 25.3 C 46 % 1011.0 hPa 0.0 l/m 3.0 km/h (1 Bft) W-NW 12.8 C 25.3 C
03.08.2004 12:00 27.8 C 41 % 1010.1 hPa 0.0 l/m 2.2 km/h (1 Bft) NW 13.4 C 27.8 C
03.08.2004 13:00 29.7 C 37 % 1009.9 hPa 0.0 l/m 3.0 km/h (1 Bft) NW 13.4 C 29.7 C
03.08.2004 14:00 30.8 C 31 % 1009.1 hPa 0.0 l/m 13.8 km/h (3 Bft) W-NW 11.8 C 30.8 C
03.08.2004 15:00 31.3 C 31 % 1008.7 hPa 0.0 l/m 17.7 km/h (3 Bft) W-NW 11.9 C 31.3 C
03.08.2004 16:00 32.3 C 26 % 1007.7 hPa 0.0 l/m 9.8 km/h (2 Bft) W-NW 10.4 C 32.3 C
03.08.2004 17:00 32.0 C 29 % 1007.6 hPa 0.0 l/m 6.9 km/h (2 Bft) W-NW 11.5 C 32.0 C
03.08.2004 18:00 31.2 C 34 % 1007.7 hPa 0.0 l/m 4.0 km/h (1 Bft) O-SO 13.6 C 31.2 C
03.08.2004 19:00 26.5 C 50 % 1008.1 hPa 0.0 l/m 3.3 km/h (1 Bft) W-NW 15.0 C 26.5 C
03.08.2004 20:00 23.2 C 70 % 1008.6 hPa 0.0 l/m 1.9 km/h (1 Bft) W-NW 17.4 C 23.2 C
03.08.2004 21:00 21.5 C 83 % 1009.1 hPa 0.0 l/m 0.1 km/h (0 Bft) N 18.5 C 21.5 C
03.08.2004 22:00 20.7 C 86 % 1009.2 hPa 0.0 l/m 0.1 km/h (0 Bft) W-NW 18.3 C 20.7 C
03.08.2004 23:00 19.9 C 86 % 1009.9 hPa 0.0 l/m 0.1 km/h (0 Bft) W-SW 17.6 C 19.9 C
04.08.2004 00:00 20.3 C 85 % 1010.4 hPa 0.0 l/m 2.8 km/h (1 Bft) O-SO 17.7 C 20.3 C
04.08.2004 01:00 20.8 C 79 % 1011.0 hPa 0.0 l/m 2.8 km/h (1 Bft) S 17.1 C 20.8 C
04.08.2004 02:00 20.1 C 77 % 1011.6 hPa 0.0 l/m 6.9 km/h (2 Bft) SO 15.9 C 20.1 C
04.08.2004 03:00 19.2 C 81 % 1011.2 hPa 0.0 l/m 0.9 km/h (0 Bft) SO 15.9 C 19.2 C
04.08.2004 04:00 19.0 C 82 % 1011.3 hPa 0.0 l/m 5.5 km/h (1 Bft) O-SO 15.9 C 19.0 C
04.08.2004 05:00 18.7 C 87 % 1011.3 hPa 0.0 l/m 1.9 km/h (1 Bft) O-SO 16.5 C 18.7 C
04.08.2004 06:00 18.4 C 90 % 1011.3 hPa 0.0 l/m 0.1 km/h (0 Bft) O-SO 16.6 C 18.4 C
04.08.2004 07:00 19.0 C 86 % 1011.2 hPa 0.0 l/m 0.0 km/h (0 Bft) N 16.5 C 19.0 C
04.08.2004 08:00 19.6 C 80 % 1011.3 hPa 0.0 l/m 0.0 km/h (0 Bft) N 16.1 C 19.6 C
04.08.2004 09:00 20.6 C 75 % 1011.0 hPa 0.0 l/m 0.8 km/h (0 Bft) SO 16.1 C 20.6 C
04.08.2004 10:00 22.1 C 70 % 1010.9 hPa 0.0 l/m 1.1 km/h (0 Bft) O 16.3 C 22.1 C
04.08.2004 11:00 24.0 C 61 % 1010.6 hPa 0.0 l/m 1.8 km/h (1 Bft) W-NW 15.9 C 24.0 C
04.08.2004 12:00 25.9 C 50 % 1009.8 hPa 0.0 l/m 2.5 km/h (1 Bft) NW 14.7 C 25.9 C
04.08.2004 13:00 27.6 C 45 % 1009.1 hPa 0.0 l/m 8.4 km/h (2 Bft) O-SO 14.4 C 27.6 C
04.08.2004 14:00 29.2 C 40 % 1008.9 hPa 0.0 l/m 4.3 km/h (1 Bft) O 14.0 C 29.2 C
04.08.2004 15:00 30.5 C 37 % 1007.7 hPa 0.0 l/m 10.8 km/h (2 Bft) O-SO 14.2 C 30.5 C
04.08.2004 16:00 30.9 C 36 % 1007.7 hPa 0.0 l/m 9.6 km/h (2 Bft) O-SO 13.9 C 30.9 C
04.08.2004 17:00 30.4 C 37 % 1007.4 hPa 0.0 l/m 17.2 km/h (3 Bft) O-SO 13.8 C 30.4 C
04.08.2004 18:00 29.7 C 41 % 1006.8 hPa 0.0 l/m 14.4 km/h (3 Bft) O-SO 14.8 C 29.7 C
04.08.2004 19:00 28.7 C 43 % 1006.9 hPa 0.0 l/m 12.1 km/h (2 Bft) O-SO 14.7 C 28.7 C
04.08.2004 20:00 26.4 C 50 % 1007.4 hPa 0.0 l/m 3.5 km/h (1 Bft) O-SO 15.1 C 26.4 C
04.08.2004 21:00 24.0 C 58 % 1008.5 hPa 0.0 l/m 1.9 km/h (1 Bft) O 15.2 C 24.0 C
04.08.2004 22:00 22.5 C 64 % 1009.1 hPa 0.0 l/m 1.0 km/h (0 Bft) O 15.2 C 22.5 C
04.08.2004 23:00 21.0 C 70 % 1010.0 hPa 0.0 l/m 4.6 km/h (1 Bft) O-SO 15.3 C 21.0 C
05.08.2004 00:00 20.5 C 72 % 1010.0 hPa 0.0 l/m 8.0 km/h (2 Bft) O-SO 15.1 C 20.5 C
05.08.2004 01:00 20.1 C 76 % 1010.1 hPa 0.0 l/m 5.9 km/h (2 Bft) O 15.7 C 20.1 C
05.08.2004 02:00 19.2 C 82 % 1010.2 hPa 0.0 l/m 5.3 km/h (1 Bft) O 16.0 C 19.2 C
05.08.2004 03:00 19.1 C 82 % 1010.2 hPa 0.0 l/m 3.7 km/h (1 Bft) O-SO 16.1 C 19.1 C
05.08.2004 04:00 18.8 C 85 % 1010.2 hPa 0.0 l/m 0.5 km/h (0 Bft) O-SO 16.2 C 18.8 C
05.08.2004 05:00 17.9 C 89 % 1010.4 hPa 0.0 l/m 3.9 km/h (1 Bft) O-SO 16.1 C 17.9 C
05.08.2004 06:00 17.7 C 93 % 1010.4 hPa 0.0 l/m 2.2 km/h (1 Bft) O-SO 16.6 C 17.7 C
05.08.2004 07:00 18.8 C 87 % 1011.1 hPa 0.0 l/m 1.4 km/h (1 Bft) O-SO 16.5 C 18.8 C
05.08.2004 08:00 19.7 C 82 % 1011.2 hPa 0.0 l/m 1.8 km/h (1 Bft) O-SO 16.5 C 19.7 C
05.08.2004 09:00 20.9 C 76 % 1011.0 hPa 0.0 l/m 2.0 km/h (1 Bft) O-SO 16.5 C 20.9 C
05.08.2004 10:00 21.7 C 77 % 1010.9 hPa 0.0 l/m 2.4 km/h (1 Bft) O-SO 17.5 C 21.7 C
05.08.2004 11:00 23.4 C 68 % 1010.7 hPa 0.0 l/m 2.4 km/h (1 Bft) O-SO 17.1 C 23.4 C
05.08.2004 12:00 25.6 C 55 % 1009.9 hPa 0.0 l/m 2.0 km/h (1 Bft) W-NW 15.8 C 25.6 C
05.08.2004 13:00 27.5 C 48 % 1009.1 hPa 0.0 l/m 5.8 km/h (2 Bft) O-SO 15.5 C 27.5 C
05.08.2004 14:00 28.8 C 42 % 1008.9 hPa 0.0 l/m 3.7 km/h (1 Bft) W-NW 14.5 C 28.8 C
05.08.2004 15:00 30.8 C 37 % 1007.7 hPa 0.0 l/m 4.3 km/h (1 Bft) W-NW 14.2 C 30.8 C
05.08.2004 16:00 30.8 C 34 % 1007.7 hPa 0.0 l/m 3.2 km/h (1 Bft) NW 13.1 C 30.8 C
05.08.2004 17:00 29.7 C 39 % 1007.9 hPa 0.0 l/m 1.4 km/h (1 Bft) W-NW 14.0 C 29.7 C
05.08.2004 18:00 30.3 C 39 % 1007.8 hPa 0.0 l/m 1.1 km/h (0 Bft) O-SO 14.7 C 30.3 C
05.08.2004 19:00 29.2 C 40 % 1007.9 hPa 0.0 l/m 7.5 km/h (2 Bft) W-NW 14.1 C 29.2 C
05.08.2004 20:00 26.4 C 51 % 1009.0 hPa 0.0 l/m 15.4 km/h (3 Bft) W-NW 15.4 C 26.4 C
05.08.2004 21:00 24.4 C 61 % 1009.7 hPa 0.0 l/m 13.9 km/h (3 Bft) W-NW 16.2 C 24.4 C
05.08.2004 22:00 23.7 C 63 % 1010.7 hPa 0.0 l/m 6.9 km/h (2 Bft) W-NW 16.2 C 23.7 C
05.08.2004 23:00 23.1 C 66 % 1011.7 hPa 0.0 l/m 7.1 km/h (2 Bft) W-NW 16.4 C 23.1 C
06.08.2004 00:00 22.2 C 70 % 1011.9 hPa 0.0 l/m 1.1 km/h (1 Bft) SO 16.4 C 22.2 C
06.08.2004 01:00 21.8 C 72 % 1011.9 hPa 0.0 l/m 3.0 km/h (1 Bft) SO 16.5 C 21.8 C
06.08.2004 02:00 22.1 C 71 % 1012.4 hPa 0.0 l/m 1.4 km/h (1 Bft) O 16.6 C 22.1 C
06.08.2004 03:00 21.6 C 72 % 1013.0 hPa 0.0 l/m 0.8 km/h (0 Bft) SO 16.3 C 21.6 C
06.08.2004 04:00 19.6 C 93 % 1013.4 hPa 4.3 l/m 2.9 km/h (1 Bft) O-SO 18.4 C 19.6 C
06.08.2004 05:00 19.3 C 99 % 1013.2 hPa 2.2 l/m 3.3 km/h (1 Bft) NW 19.1 C 19.3 C
06.08.2004 06:00 18.9 C 100 % 1013.5 hPa 0.3 l/m 1.3 km/h (1 Bft) O-SO 18.9 C 18.9 C
06.08.2004 07:00 19.1 C 100 % 1014.4 hPa 0.3 l/m 0.3 km/h (0 Bft) SO 19.1 C 19.1 C
06.08.2004 08:00 19.3 C 100 % 1014.5 hPa 0.0 l/m 3.4 km/h (1 Bft) W-NW 19.3 C 19.3 C
06.08.2004 09:00 19.9 C 95 % 1015.3 hPa 0.0 l/m 5.8 km/h (2 Bft) W-NW 19.1 C 19.9 C
06.08.2004 10:00 20.4 C 88 % 1015.2 hPa 0.0 l/m 6.4 km/h (2 Bft) W-NW 18.4 C 20.4 C
06.08.2004 11:00 21.2 C 84 % 1015.1 hPa 0.0 l/m 2.2 km/h (1 Bft) W-NW 18.3 C 21.2 C
06.08.2004 12:00 21.9 C 77 % 1015.0 hPa 0.0 l/m 4.3 km/h (1 Bft) W-NW 17.8 C 21.9 C
06.08.2004 13:00 23.6 C 69 % 1014.8 hPa 0.0 l/m 2.4 km/h (1 Bft) W 17.6 C 23.6 C
06.08.2004 14:00 25.3 C 61 % 1014.5 hPa 0.0 l/m 2.1 km/h (1 Bft) W-NW 17.1 C 25.3 C
06.08.2004 15:00 26.5 C 53 % 1013.4 hPa 0.0 l/m 1.5 km/h (1 Bft) W-NW 16.1 C 26.5 C
06.08.2004 16:00 27.1 C 49 % 1013.3 hPa 0.0 l/m 1.1 km/h (0 Bft) W-NW 15.6 C 27.1 C
06.08.2004 17:00 26.5 C 53 % 1013.4 hPa 0.0 l/m 0.9 km/h (0 Bft) W-NW 16.1 C 26.5 C
06.08.2004 18:00 26.9 C 54 % 1013.0 hPa 0.0 l/m 8.9 km/h (2 Bft) W-NW 16.8 C 26.9 C
06.08.2004 19:00 25.2 C 62 % 1013.6 hPa 0.0 l/m 1.4 km/h (1 Bft) W 17.3 C 25.2 C
06.08.2004 20:00 23.6 C 66 % 1014.0 hPa 0.0 l/m 0.1 km/h (0 Bft) W 16.9 C 23.6 C
06.08.2004 21:00 21.8 C 76 % 1015.0 hPa 0.0 l/m 1.2 km/h (1 Bft) S-SO 17.4 C 21.8 C
06.08.2004 22:00 20.1 C 86 % 1015.3 hPa 0.0 l/m 4.0 km/h (1 Bft) O-SO 17.8 C 20.1 C
06.08.2004 23:00 19.1 C 92 % 1015.4 hPa 0.0 l/m 5.0 km/h (1 Bft) O-SO 17.7 C 19.1 C
07.08.2004 00:00 18.2 C 95 % 1015.5 hPa 0.0 l/m 0.9 km/h (0 Bft) O-SO 17.4 C 18.2 C
07.08.2004 01:00 17.6 C 97 % 1015.6 hPa 0.0 l/m 1.3 km/h (1 Bft) O-SO 17.2 C 17.6 C
07.08.2004 02:00 17.1 C 99 % 1015.2 hPa 0.0 l/m 1.3 km/h (1 Bft) O-SO 17.0 C 17.1 C
07.08.2004 03:00 16.6 C 100 % 1014.7 hPa 0.0 l/m 0.4 km/h (0 Bft) O-SO 16.6 C 16.6 C
07.08.2004 04:00 16.3 C 100 % 1014.7 hPa 0.0 l/m 0.0 km/h (0 Bft) N 16.3 C 16.3 C
07.08.2004 05:00 16.1 C 100 % 1014.8 hPa 0.0 l/m 3.7 km/h (1 Bft) O-SO 16.1 C 16.1 C
07.08.2004 06:00 15.9 C 100 % 1014.8 hPa 0.0 l/m 0.0 km/h (0 Bft) N 15.9 C 15.9 C
07.08.2004 07:00 17.5 C 99 % 1015.0 hPa 0.0 l/m 0.0 km/h (0 Bft) N 17.3 C 17.5 C
07.08.2004 08:00 18.7 C 95 % 1015.2 hPa 0.0 l/m 0.0 km/h (0 Bft) N 17.8 C 18.7 C
07.08.2004 09:00 19.7 C 87 % 1014.9 hPa 0.0 l/m 0.5 km/h (0 Bft) O-SO 17.5 C 19.7 C
07.08.2004 10:00 21.0 C 81 % 1015.1 hPa 0.0 l/m 1.1 km/h (0 Bft) O-SO 17.6 C 21.0 C
07.08.2004 11:00 23.1 C 72 % 1014.4 hPa 0.0 l/m 1.4 km/h (1 Bft) SO 17.7 C 23.1 C
07.08.2004 12:00 25.1 C 61 % 1013.6 hPa 0.0 l/m 1.8 km/h (1 Bft) O-SO 17.1 C 25.1 C
07.08.2004 13:00 27.2 C 53 % 1012.4 hPa 0.0 l/m 3.2 km/h (1 Bft) SO 16.7 C 27.2 C
07.08.2004 14:00 28.9 C 45 % 1011.7 hPa 0.0 l/m 6.0 km/h (2 Bft) O-SO 15.8 C 28.9 C
07.08.2004 15:00 30.1 C 39 % 1010.9 hPa 0.0 l/m 3.3 km/h (1 Bft) O-SO 14.7 C 30.1 C
07.08.2004 16:00 29.3 C 39 % 1011.0 hPa 0.0 l/m 9.7 km/h (2 Bft) N-NO 13.9 C 29.3 C
07.08.2004 17:00 22.5 C 59 % 1012.4 hPa 9.6 l/m 11.7 km/h (2 Bft) NW 13.8 C 22.5 C
07.08.2004 18:00 19.2 C 96 % 1012.3 hPa 0.0 l/m 0.5 km/h (0 Bft) O-SO 18.5 C 19.2 C
07.08.2004 19:00 19.6 C 97 % 1012.2 hPa 0.0 l/m 0.0 km/h (0 Bft) N 19.1 C 19.6 C
07.08.2004 20:00 19.6 C 94 % 1013.1 hPa 0.0 l/m 0.6 km/h (0 Bft) NW 18.5 C 19.6 C
07.08.2004 21:00 18.8 C 96 % 1013.3 hPa 0.0 l/m 0.8 km/h (0 Bft) NO 18.2 C 18.8 C
07.08.2004 22:00 18.1 C 98 % 1013.5 hPa 0.0 l/m 0.0 km/h (0 Bft) N 17.8 C 18.1 C
07.08.2004 23:00 17.4 C 100 % 1012.8 hPa 0.0 l/m 1.1 km/h (1 Bft) O 17.4 C 17.4 C
08.08.2004 00:00 17.0 C 100 % 1012.8 hPa 0.0 l/m 0.4 km/h (0 Bft) O 17.0 C 17.0 C
08.08.2004 01:00 16.5 C 100 % 1012.6 hPa 0.0 l/m 0.7 km/h (0 Bft) O 16.5 C 16.5 C
08.08.2004 02:00 15.8 C 100 % 1012.7 hPa 0.0 l/m 0.0 km/h (0 Bft) O 15.8 C 15.8 C
08.08.2004 03:00 15.6 C 100 % 1012.7 hPa 0.0 l/m 0.1 km/h (0 Bft) N 15.6 C 15.6 C
08.08.2004 04:00 15.3 C 100 % 1012.6 hPa 0.0 l/m 0.0 km/h (0 Bft) N 15.3 C 15.3 C
08.08.2004 05:00 15.5 C 100 % 1012.8 hPa 0.0 l/m 0.0 km/h (0 Bft) N 15.5 C 15.5 C
08.08.2004 06:00 16.1 C 100 % 1012.7 hPa 0.0 l/m 0.2 km/h (0 Bft) NW 16.1 C 16.1 C
08.08.2004 07:00 16.2 C 100 % 1012.5 hPa 0.0 l/m 0.0 km/h (0 Bft) N 16.2 C 16.2 C
08.08.2004 08:00 16.9 C 100 % 1012.6 hPa 0.0 l/m 0.0 km/h (0 Bft) N 16.9 C 16.9 C
08.08.2004 09:00 17.9 C 100 % 1012.4 hPa 0.0 l/m 0.1 km/h (0 Bft) N 17.9 C 17.9 C
08.08.2004 10:00 19.5 C 93 % 1011.9 hPa 0.0 l/m 1.2 km/h (1 Bft) W-NW 18.3 C 19.5 C
08.08.2004 11:00 21.9 C 77 % 1010.9 hPa 0.0 l/m 1.1 km/h (1 Bft) W-NW 17.5 C 21.9 C
08.08.2004 12:00 24.2 C 66 % 1010.1 hPa 0.0 l/m 2.4 km/h (1 Bft) W-NW 17.4 C 24.2 C
08.08.2004 13:00 26.4 C 59 % 1009.3 hPa 0.0 l/m 3.1 km/h (1 Bft) O 17.6 C 26.4 C
08.08.2004 14:00 28.6 C 49 % 1008.8 hPa 0.0 l/m 2.2 km/h (1 Bft) O-SO 16.8 C 28.6 C
08.08.2004 15:00 30.2 C 43 % 1007.8 hPa 0.0 l/m 5.7 km/h (1 Bft) O-SO 16.2 C 30.2 C
08.08.2004 16:00 31.0 C 39 % 1007.7 hPa 0.0 l/m 5.1 km/h (1 Bft) O-SO 15.3 C 31.0 C
08.08.2004 17:00 30.9 C 37 % 1007.3 hPa 0.0 l/m 6.6 km/h (2 Bft) O-SO 14.4 C 30.9 C
08.08.2004 18:00 30.1 C 39 % 1006.8 hPa 0.0 l/m 4.2 km/h (1 Bft) O 14.5 C 30.1 C
08.08.2004 19:00 28.7 C 43 % 1006.9 hPa 0.0 l/m 0.5 km/h (0 Bft) N 14.7 C 28.7 C
08.08.2004 20:00 26.0 C 50 % 1008.0 hPa 0.0 l/m 0.5 km/h (0 Bft) O-NO 14.8 C 26.0 C
08.08.2004 21:00 22.8 C 63 % 1008.7 hPa 0.0 l/m 1.3 km/h (1 Bft) O 15.4 C 22.8 C
08.08.2004 22:00 21.1 C 71 % 1009.1 hPa 0.0 l/m 0.0 km/h (0 Bft) N 15.7 C 21.1 C
08.08.2004 23:00 19.8 C 78 % 1010.1 hPa 0.0 l/m 0.8 km/h (0 Bft) O 15.8 C 19.8 C
Min-Datum _ 02.08.04 02.08.04 08.08.04 - 02.08.04 - 02.08.04 02.08.04
_ Min-Zeit 06:06 14:24 17:39 - 00:00 - 19:03 06:06
Minimum _ 14.9 C 25 % 1006.7 hPa - 0.0 km/h (0 Bft) - 9.0 C 14.9 C
Max-Datum _ 02.08.04 06.08.04 02.08.04 07.08.04 03.08.04 - 06.08.04 02.08.04
_ Max-Zeit 16:27 05:45 07:54 17:45 15:02 - 09:12 16:27
Maximum _ 33.1 C 100 % 1016.7 hPa 9.6 l/m 37.1 km/h
W-NW (5 Bft)
- 19.5 C 33.1 C
Durchschnitt _ 22.6 C 69 % 1011.7 hPa #16.7 l/m 3.4 km/h (1 Bft) O-SO 15.6 C 22.6 C

Durchschnitt Minimum Temp.21.6 C
Durchschnitt Maximum Temp.23.6 C
© Kaiko 2004